Kell, Illinois
Current Conditions -  °F | °C
As of 12:15 PM on Monday 26 Jan 2015 (Local Time) from KENL Reporting Station
Broken Clouds Broken Clouds  
Wind Chill: 25°   Ceiling: 2300
Heat Index: 31°   Visibility: 10mi
Dew Point: 23°   Wind: 6mph
Humidity: 74%   Direction: 260°W
Pressure: 29.97"   Gusts: NA
Location:  38.49°N, 88.91°W
Report Text: KENL 261815Z AUTO 26005KT 10SM BKN023 BKN034 BKN044 M01/M05 A2997 RMK AO2 T10071049
Loading
Personal Weather Stations






























Interactive Weather Map New forecast layout! Learn more

10-Day Weather Forecast

Advertisements
Track Severe Weather on mobile